17:54
Airports
History
Links
Donate
Help keep this website running!
PayPal
Bitcoin
This page is community maintained. The information is intended for PC simulator navigation or reference.
Always use approved charts for navigation.
SNGA
Guarapari
Guarapari (SNGA)
Guarapari, Espírito Santo, Brazil (29216)
(C)
Lat/Lng:20° 38' 47.29" S / 40° 29' 30.71" W
-20.64647 / -40.491863
Elevation:28'ft / 9mMSL
ID / ICAO:SNGA
Runways:1
Longest:06-24
Asphalt 1,320m / 4,330ft
Controlled:Yes
Nearby Weather17:00 GMT 2018-01-18
Nearby weather at SBVT, Goiabeiras located 30.0 nautical miles from SNGA
Altimeter: 29.97
Visibility: 6.2 statute miles
Wind: 15 knots (from 050°)
Temp: 32°c / 90°f
Humidity: 55.6%

METAR: SBVT 181700Z 05015KT 9999 FEW030 32/22 Q1015

(Powered by phpweather)
Runway 06 / 24
Dimensions:1319.7 x 29.9m 4330' x 98'ft
Surface:Asphalt
Edge Lights:Low intensity
Runway 06 [A]Runway 24 [B]
Heading:040°TH 220°TH
Lat:
Lng:
20° 39' 3.73"S
40° 29' 45.49"W
20° 38' 30.85"S
40° 29' 15.92"W
User Notes and Comments
20° 38' 47.29" S / 40° 29' 30.71" W
Distance To
Airport ID:
Nearby Airports
(U) JOAO MONTEIRO 18.6 NM
SIVU NNE 33°
(C) Goiabeiras 30.0 NM
SBVT ( WX ) NNE 25°
(C) Cachoeiro Do Itapemirim 46.7 NM
SNKI WSW 253°
(U) PRIMO BITTI 62.1 NM
SIFV NNE 24°
4 Sao Jose 73.3 NM
SWYG NNE 14°
(U) COLATINA 80.3 NM
SNCX N 355°
4 Lajinha 80.4 NM
SNLH WNW 295°
VFR Chart
Flight Planning at SkyVector.com